createdAt,value
2018-01-11T00:02:18.672Z,20.27
2018-01-11T00:04:47.032Z,20.33
2018-01-11T00:07:15.613Z,20.80
2018-01-11T00:09:44.730Z,23.40
2018-01-11T00:12:13.117Z,19.13
2018-01-11T00:14:41.444Z,21.07
2018-01-11T00:17:09.873Z,23.07
2018-01-11T00:19:38.258Z,18.53
2018-01-11T00:22:06.595Z,18.70
2018-01-11T00:24:35.702Z,23.30
2018-01-11T00:27:04.047Z,20.67
2018-01-11T00:29:32.488Z,20.17
2018-01-11T00:32:00.832Z,20.53
2018-01-11T00:34:30.009Z,16.43
2018-01-11T00:36:58.434Z,21.77
2018-01-11T00:39:26.768Z,18.73
2018-01-11T00:41:55.254Z,18.37
2018-01-11T00:44:23.611Z,20.00
2018-01-11T00:46:51.965Z,22.10
2018-01-11T00:49:20.299Z,21.20
2018-01-11T00:51:49.431Z,22.47
2018-01-11T00:54:17.815Z,21.67
2018-01-11T00:56:46.196Z,20.50
2018-01-11T00:59:14.557Z,20.60
2018-01-11T01:01:42.887Z,20.67
2018-01-11T01:04:11.251Z,20.10
2018-01-11T01:06:39.582Z,21.77
2018-01-11T01:09:08.712Z,20.00
2018-01-11T01:11:37.128Z,19.43
2018-01-11T01:14:05.469Z,19.33
2018-01-11T01:16:33.838Z,18.80
2018-01-11T01:19:02.189Z,21.37
2018-01-11T01:21:31.322Z,22.67
2018-01-11T01:23:59.684Z,20.03
2018-01-11T01:26:28.041Z,22.00
2018-01-11T01:28:57.159Z,21.40
2018-01-11T01:31:25.527Z,24.83
2018-01-11T01:33:54.751Z,23.30
2018-01-11T01:36:23.092Z,20.63
2018-01-11T01:38:51.470Z,20.80
2018-01-11T01:41:20.603Z,20.97
2018-01-11T01:43:48.945Z,21.70
2018-01-11T01:46:17.279Z,21.20
2018-01-11T01:48:45.640Z,22.03
2018-01-11T01:51:13.997Z,21.07
2018-01-11T01:53:43.217Z,18.57
2018-01-11T01:56:11.572Z,21.80
2018-01-11T01:58:40.676Z,18.73
2018-01-11T02:01:09.807Z,23.93
2018-01-11T02:03:38.157Z,26.30
2018-01-11T02:06:06.496Z,23.20
2018-01-11T02:08:34.850Z,22.70
2018-01-11T02:11:03.233Z,24.20
2018-01-11T02:13:31.585Z,20.70
2018-01-11T02:15:59.963Z,22.23
2018-01-11T02:18:28.308Z,26.47
2018-01-11T02:20:57.421Z,27.83
2018-01-11T02:23:25.814Z,22.27
2018-01-11T02:25:54.223Z,22.83
2018-01-11T02:28:22.566Z,23.60
2018-01-11T02:30:50.924Z,23.33
2018-01-11T02:33:20.024Z,21.87
2018-01-11T02:35:49.122Z,26.13
2018-01-11T02:38:18.388Z,23.37
2018-01-11T02:40:46.733Z,26.03
2018-01-11T02:43:15.105Z,25.67
2018-01-11T02:45:43.451Z,24.30
2018-01-11T02:48:12.769Z,25.33
2018-01-11T02:50:41.852Z,25.23
2018-01-11T02:53:10.947Z,24.97
2018-01-11T02:55:40.063Z,23.20
2018-01-11T02:58:08.417Z,25.10
2018-01-11T03:00:36.823Z,21.43
2018-01-11T03:03:05.176Z,21.57
2018-01-11T03:05:33.599Z,22.73
2018-01-11T03:08:01.935Z,22.30
2018-01-11T03:10:31.078Z,21.80
2018-01-11T03:12:59.446Z,20.60
2018-01-11T03:15:27.828Z,25.57
2018-01-11T03:17:56.167Z,20.07
2018-01-11T03:20:25.485Z,19.97
2018-01-11T03:22:54.703Z,26.57
2018-01-11T03:25:23.130Z,24.57
2018-01-11T03:27:51.449Z,24.93
2018-01-11T03:30:19.797Z,23.00
2018-01-11T03:32:48.139Z,24.87
2018-01-11T03:35:17.143Z,21.67
2018-01-11T03:37:46.361Z,23.10
2018-01-11T03:40:14.793Z,22.90
2018-01-11T03:42:43.127Z,19.20
2018-01-11T03:45:11.564Z,21.87
2018-01-11T03:47:39.952Z,21.80
2018-01-11T03:50:08.947Z,20.60
2018-01-11T03:52:37.300Z,25.57
2018-01-11T03:55:05.731Z,22.23
2018-01-11T03:57:34.196Z,24.20
2018-01-11T04:00:02.527Z,26.80
2018-01-11T04:02:30.886Z,24.57
2018-01-11T04:05:00.007Z,23.83
2018-01-11T04:07:28.412Z,25.53
2018-01-11T04:09:56.788Z,25.97
2018-01-11T04:12:25.160Z,22.43
2018-01-11T04:14:53.650Z,25.67
2018-01-11T04:17:21.984Z,25.63
2018-01-11T04:19:51.183Z,24.53
2018-01-11T04:22:20.288Z,23.57
2018-01-11T04:24:49.044Z,26.60
2018-01-11T04:27:17.382Z,26.23
2018-01-11T04:29:45.720Z,24.90
2018-01-11T04:32:14.835Z,24.93
2018-01-11T04:34:43.179Z,23.67
2018-01-11T04:37:11.519Z,26.70
2018-01-11T04:39:40.072Z,22.50
2018-01-11T04:42:09.164Z,27.80
2018-01-11T04:44:38.288Z,23.30
2018-01-11T04:47:06.636Z,24.93
2018-01-11T04:49:35.747Z,28.93
2018-01-11T04:52:04.101Z,23.83
2018-01-11T04:54:32.482Z,22.57
2018-01-11T04:57:00.827Z,25.63
2018-01-11T04:59:29.163Z,23.00
2018-01-11T05:01:57.514Z,25.60
2018-01-11T05:04:26.616Z,24.93
2018-01-11T05:06:55.748Z,25.00
2018-01-11T05:09:24.122Z,31.70
2018-01-11T05:11:52.504Z,29.03
2018-01-11T05:14:21.367Z,27.67
2018-01-11T05:16:50.486Z,30.33
2018-01-11T05:19:18.839Z,25.17
2018-01-11T05:21:47.972Z,24.57
2018-01-11T05:24:16.320Z,21.37
2018-01-11T05:26:45.469Z,27.77
2018-01-11T05:29:13.827Z,27.17
2018-01-11T05:31:42.201Z,52.30
2018-01-11T05:34:10.541Z,42.03
2018-01-11T05:36:38.893Z,27.97
2018-01-11T05:39:07.253Z,23.83
2018-01-11T05:41:35.612Z,23.53
2018-01-11T05:44:03.957Z,21.90
2018-01-11T05:46:32.305Z,24.47
2018-01-11T05:49:00.710Z,25.57
2018-01-11T05:51:29.058Z,27.00
2018-01-11T05:53:57.406Z,23.97
2018-01-11T05:56:25.741Z,23.70
2018-01-11T05:58:54.191Z,24.53
2018-01-11T06:01:22.511Z,22.80
2018-01-11T06:03:51.624Z,24.43
2018-01-11T06:06:20.729Z,27.57
2018-01-11T06:08:49.068Z,21.47
2018-01-11T06:11:17.499Z,20.70
2018-01-11T06:13:45.830Z,24.27
2018-01-11T06:16:14.194Z,21.40
2018-01-11T06:18:42.526Z,21.97
2018-01-11T06:21:10.912Z,23.97
2018-01-11T06:23:39.256Z,25.67
2018-01-11T06:26:08.403Z,20.17
2018-01-11T06:28:36.884Z,19.87
2018-01-11T06:31:05.206Z,21.20
2018-01-11T06:33:33.666Z,20.93
2018-01-11T06:36:02.004Z,20.00
2018-01-11T06:38:30.412Z,22.20
2018-01-11T06:40:58.810Z,18.93
2018-01-11T06:43:27.156Z,20.43
2018-01-11T06:45:55.511Z,25.23
2018-01-11T06:48:23.863Z,21.97
2018-01-11T06:50:52.257Z,18.27
2018-01-11T06:53:21.376Z,23.80
2018-01-11T06:55:49.749Z,71.20
2018-01-11T06:58:18.131Z,36.33
2018-01-11T07:00:46.547Z,21.43
2018-01-11T07:03:14.896Z,24.33
2018-01-11T07:05:43.237Z,21.00
2018-01-11T07:08:11.605Z,19.67
2018-01-11T07:10:39.941Z,20.60
2018-01-11T07:13:08.307Z,20.43
2018-01-11T07:15:36.691Z,20.53
2018-01-11T07:18:05.047Z,20.60
2018-01-11T07:20:34.193Z,30.83
2018-01-11T07:23:02.547Z,20.13
2018-01-11T07:25:30.908Z,19.50
2018-01-11T07:27:59.244Z,19.77
2018-01-11T07:30:27.584Z,18.93
2018-01-11T07:32:55.972Z,20.33
2018-01-11T07:35:24.341Z,21.10
2018-01-11T07:37:52.690Z,19.77
2018-01-11T07:40:21.786Z,22.47
2018-01-11T07:42:50.911Z,22.73
2018-01-11T07:45:19.257Z,19.60
2018-01-11T07:47:48.356Z,22.47
2018-01-11T07:50:17.470Z,21.17
2018-01-11T07:52:45.864Z,19.17
2018-01-11T07:55:14.221Z,31.43
2018-01-11T07:57:42.611Z,28.40
2018-01-11T08:00:10.966Z,28.10
2018-01-11T08:02:40.067Z,26.20
2018-01-11T08:05:08.411Z,21.90
2018-01-11T08:07:36.764Z,24.50
2018-01-11T08:10:05.095Z,21.83
2018-01-11T08:12:34.953Z,24.33
2018-01-11T08:15:03.318Z,22.13
2018-01-11T08:17:31.724Z,24.60
2018-01-11T08:20:00.067Z,23.43
2018-01-11T08:22:28.401Z,25.97
2018-01-11T08:24:56.757Z,22.03
2018-01-11T08:27:25.249Z,23.87
2018-01-11T08:29:53.601Z,20.20
2018-01-11T08:32:21.992Z,19.13
2018-01-11T08:34:50.745Z,20.23
2018-01-11T08:37:19.830Z,26.10
2018-01-11T08:39:48.941Z,20.97
2018-01-11T08:42:17.280Z,20.60
2018-01-11T08:44:45.730Z,19.33
2018-01-11T08:47:14.104Z,21.90
2018-01-11T08:49:42.444Z,22.40
2018-01-11T08:52:10.821Z,21.83
2018-01-11T08:54:39.174Z,22.43
2018-01-11T08:57:07.508Z,22.63
2018-01-11T08:59:36.606Z,22.00
2018-01-11T09:02:04.943Z,25.70
2018-01-11T09:04:34.078Z,22.60
2018-01-11T09:07:02.582Z,25.37
2018-01-11T09:09:30.948Z,23.87
2018-01-11T09:11:59.424Z,21.33
2018-01-11T09:14:27.757Z,26.13
2018-01-11T09:16:56.198Z,24.00
2018-01-11T09:19:24.532Z,19.77
2018-01-11T09:21:53.647Z,22.10
2018-01-11T09:24:21.978Z,19.60
2018-01-11T09:26:50.427Z,22.20
2018-01-11T09:29:18.775Z,20.53
2018-01-11T09:31:48.008Z,23.13
2018-01-11T09:34:16.396Z,19.23
2018-01-11T09:36:44.803Z,20.20
2018-01-11T09:39:13.156Z,23.40
2018-01-11T09:41:41.533Z,20.80
2018-01-11T09:44:09.883Z,22.20
2018-01-11T09:46:38.223Z,20.43
2018-01-11T09:49:06.584Z,19.03
2018-01-11T09:51:34.941Z,22.63
2018-01-11T09:54:03.330Z,21.60
2018-01-11T09:56:32.082Z,21.37
2018-01-11T09:59:00.573Z,24.97
2018-01-11T10:01:29.158Z,21.23
2018-01-11T10:03:57.507Z,21.13
2018-01-11T10:06:25.827Z,19.27
2018-01-11T10:08:54.180Z,20.77
2018-01-11T10:11:22.545Z,24.53
2018-01-11T10:13:51.677Z,20.37
2018-01-11T10:16:20.025Z,21.23
2018-01-11T10:18:48.435Z,26.00
2018-01-11T10:21:16.792Z,28.40
2018-01-11T10:23:45.896Z,25.37
2018-01-11T10:26:14.253Z,24.90
2018-01-11T10:28:42.616Z,19.33
2018-01-11T10:31:11.200Z,22.83
2018-01-11T10:33:39.531Z,22.63
2018-01-11T10:36:07.905Z,23.63
2018-01-11T10:38:36.242Z,22.83
2018-01-11T10:41:04.588Z,26.23
2018-01-11T10:43:32.944Z,21.43
2018-01-11T10:46:01.414Z,25.03
2018-01-11T10:48:29.742Z,21.83
2018-01-11T10:50:58.218Z,25.10
2018-01-11T10:53:26.658Z,22.90
2018-01-11T10:55:55.049Z,24.10
2018-01-11T10:58:23.391Z,28.63
2018-01-11T11:00:58.221Z,26.27
2018-01-11T11:03:27.439Z,28.30
2018-01-11T11:05:56.542Z,29.63
2018-01-11T11:08:24.870Z,25.87
2018-01-11T11:10:53.373Z,26.73
2018-01-11T11:13:21.718Z,26.13
2018-01-11T11:15:50.049Z,25.60
2018-01-11T11:18:18.457Z,27.97
2018-01-11T11:20:46.820Z,22.47
2018-01-11T11:23:15.164Z,28.53
2018-01-11T11:25:44.285Z,25.43
2018-01-11T11:28:13.509Z,35.00
2018-01-11T11:30:41.848Z,25.47
2018-01-11T11:33:11.081Z,29.83
2018-01-11T11:35:39.405Z,25.00
2018-01-11T11:38:07.848Z,25.27
2018-01-11T11:40:36.180Z,23.83
2018-01-11T11:43:05.302Z,25.73
2018-01-11T11:45:33.710Z,25.23
2018-01-11T11:48:02.083Z,24.83
2018-01-11T11:50:30.408Z,23.73
2018-01-11T11:52:59.712Z,24.30
2018-01-11T11:55:28.040Z,24.33
2018-01-11T11:57:56.504Z,25.87
2018-01-11T12:00:24.845Z,24.43
2018-01-11T12:02:53.812Z,24.07
2018-01-11T12:05:22.148Z,22.17
2018-01-11T12:07:50.488Z,26.10
2018-01-11T12:10:18.949Z,24.43
2018-01-11T12:12:48.039Z,21.10
2018-01-11T12:15:16.388Z,20.30
2018-01-11T12:17:44.720Z,18.47
2018-01-11T12:20:13.080Z,19.83
2018-01-11T12:22:41.408Z,25.03
2018-01-11T12:25:09.807Z,18.97
2018-01-11T12:27:38.209Z,18.03
2018-01-11T12:30:06.543Z,19.90
2018-01-11T12:32:34.909Z,20.47
2018-01-11T12:35:04.068Z,18.20
2018-01-11T12:37:32.416Z,38.73
2018-01-11T12:40:00.887Z,58.53
2018-01-11T12:42:29.180Z,24.03
2018-01-11T12:44:57.527Z,19.13
2018-01-11T12:47:26.648Z,18.97
2018-01-11T12:49:55.065Z,16.67
2018-01-11T12:52:23.473Z,15.23
2018-01-11T12:54:52.615Z,22.77
2018-01-11T12:57:20.997Z,19.83
2018-01-11T12:59:49.503Z,22.17
2018-01-11T13:02:17.852Z,24.37
2018-01-11T13:04:46.196Z,21.00
2018-01-11T13:07:15.334Z,18.37
2018-01-11T13:09:43.703Z,23.67
2018-01-11T13:12:12.095Z,21.70
2018-01-11T13:14:40.439Z,21.43
2018-01-11T13:17:08.847Z,22.50
2018-01-11T13:19:37.340Z,22.63
2018-01-11T13:22:05.628Z,19.00
2018-01-11T13:24:34.009Z,22.80
2018-01-11T13:27:02.360Z,26.50
2018-01-11T13:29:30.744Z,21.70
2018-01-11T13:31:59.095Z,23.23
2018-01-11T13:34:28.223Z,21.70
2018-01-11T13:36:56.599Z,23.83
2018-01-11T13:39:24.968Z,24.23
2018-01-11T13:41:53.315Z,27.97
2018-01-11T13:44:22.420Z,22.37
2018-01-11T13:46:50.944Z,23.73
2018-01-11T13:49:19.297Z,21.37
2018-01-11T13:51:47.641Z,23.37
2018-01-11T13:54:15.999Z,23.80
2018-01-11T13:56:44.547Z,21.63
2018-01-11T13:59:12.896Z,23.37
2018-01-11T14:01:42.193Z,24.33
2018-01-11T14:04:10.538Z,24.33
2018-01-11T14:06:38.884Z,24.67
2018-01-11T14:09:07.225Z,23.93
2018-01-11T14:11:35.570Z,19.77
2018-01-11T14:14:03.917Z,26.50
2018-01-11T14:16:32.308Z,21.83
2018-01-11T14:19:00.652Z,23.10
2018-01-11T14:21:29.797Z,24.67
2018-01-11T14:23:58.201Z,25.07
2018-01-11T14:26:26.561Z,26.33
2018-01-11T14:28:54.921Z,27.23
2018-01-11T14:31:23.320Z,27.73
2018-01-11T14:33:51.662Z,25.80
2018-01-11T14:36:20.014Z,25.87
2018-01-11T14:38:49.213Z,21.17
2018-01-11T14:41:17.594Z,22.60
2018-01-11T14:43:46.719Z,23.97
2018-01-11T14:46:15.813Z,22.03
2018-01-11T14:48:44.161Z,21.27
2018-01-11T14:51:12.495Z,22.67
2018-01-11T14:53:40.839Z,23.50
2018-01-11T14:56:09.972Z,28.03
2018-01-11T14:58:38.971Z,20.97
2018-01-11T15:01:07.326Z,23.50
2018-01-11T15:03:35.677Z,23.70
2018-01-11T15:06:04.798Z,26.10
2018-01-11T15:08:33.159Z,23.27
2018-01-11T15:11:01.520Z,28.40
2018-01-11T15:13:29.876Z,36.57
2018-01-11T15:15:58.392Z,37.30
2018-01-11T15:18:26.715Z,34.27
2018-01-11T15:20:55.099Z,27.60
2018-01-11T15:23:23.436Z,27.20
2018-01-11T15:25:51.784Z,24.93
2018-01-11T15:28:20.241Z,25.47
2018-01-11T15:30:48.600Z,25.67
2018-01-11T15:33:17.177Z,29.50
2018-01-11T15:35:45.540Z,33.77
2018-01-11T15:38:14.657Z,26.53
2018-01-11T15:40:42.980Z,28.10
2018-01-11T15:43:11.337Z,27.57
2018-01-11T15:45:39.719Z,29.90
2018-01-11T15:48:08.379Z,27.57
2018-01-11T15:50:36.724Z,31.53
2018-01-11T15:53:05.250Z,33.13
2018-01-11T15:55:33.602Z,32.97
2018-01-11T15:58:01.967Z,31.67
2018-01-11T16:00:31.086Z,28.73
2018-01-11T16:02:59.432Z,26.70
2018-01-11T16:05:27.783Z,32.93
2018-01-11T16:07:56.124Z,29.73
2018-01-11T16:10:24.569Z,34.93
2018-01-11T16:12:52.917Z,33.53
2018-01-11T16:15:21.240Z,34.03
2018-01-11T16:17:50.373Z,29.53
2018-01-11T16:20:18.720Z,28.87
2018-01-11T16:22:47.854Z,30.60
2018-01-11T16:25:16.236Z,36.13
2018-01-11T16:27:44.570Z,47.97
2018-01-11T16:30:13.684Z,37.63
2018-01-11T16:32:42.022Z,43.07
2018-01-11T16:35:10.379Z,34.80
2018-01-11T16:37:38.712Z,31.73
2018-01-11T16:40:07.102Z,34.47
2018-01-11T16:42:35.445Z,35.33
2018-01-11T16:45:04.025Z,33.17
2018-01-11T16:47:32.442Z,31.50
2018-01-11T16:50:00.824Z,35.50
2018-01-11T16:52:29.221Z,31.93
2018-01-11T16:54:58.189Z,35.53
2018-01-11T16:57:26.556Z,36.80
2018-01-11T16:59:55.667Z,34.30
2018-01-11T17:02:24.056Z,32.97
2018-01-11T17:04:52.429Z,32.27
2018-01-11T17:07:20.824Z,36.67
2018-01-11T17:09:49.172Z,37.90
2018-01-11T17:12:18.373Z,36.17
2018-01-11T17:14:47.587Z,38.93
2018-01-11T17:17:15.937Z,38.13
2018-01-11T17:19:45.039Z,37.50
2018-01-11T17:22:13.425Z,37.77
2018-01-11T17:24:41.826Z,38.27
2018-01-11T17:27:10.195Z,35.53
2018-01-11T17:29:38.592Z,36.50
2018-01-11T17:32:06.948Z,35.87
2018-01-11T17:34:35.363Z,36.57
2018-01-11T17:37:03.747Z,36.73
2018-01-11T17:39:32.112Z,35.70
2018-01-11T17:42:00.454Z,39.80
2018-01-11T17:44:29.780Z,126.03
2018-01-11T17:46:58.141Z,50.33
2018-01-11T17:49:27.289Z,39.90
2018-01-11T17:51:55.661Z,37.90
2018-01-11T17:54:24.006Z,37.40
2018-01-11T17:56:52.357Z,40.30
2018-01-11T17:59:21.491Z,45.63
2018-01-11T18:01:50.189Z,48.93
2018-01-11T18:04:18.742Z,48.87
2018-01-11T18:06:47.863Z,46.37
2018-01-11T18:09:16.209Z,42.73
2018-01-11T18:11:45.328Z,44.20
2018-01-11T18:14:13.765Z,43.73
2018-01-11T18:16:42.182Z,44.43
2018-01-11T18:19:10.657Z,45.17
2018-01-11T18:21:39.006Z,46.53
2018-01-11T18:24:07.477Z,43.97
2018-01-11T18:26:35.819Z,44.87
2018-01-11T18:29:04.177Z,43.63
2018-01-11T18:31:32.527Z,42.63
2018-01-11T18:34:00.868Z,43.07
2018-01-11T18:36:29.212Z,39.90
2018-01-11T18:38:57.697Z,43.10
2018-01-11T18:41:26.112Z,44.50
2018-01-11T18:43:54.549Z,40.53
2018-01-11T18:46:22.916Z,47.80
2018-01-11T18:48:51.323Z,43.17
2018-01-11T18:51:19.713Z,43.70
2018-01-11T18:53:48.187Z,45.00
2018-01-11T18:56:17.114Z,39.77
2018-01-11T18:58:45.453Z,44.20
2018-01-11T19:01:13.861Z,40.47
2018-01-11T19:03:43.148Z,46.57
2018-01-11T19:06:11.499Z,43.00
2018-01-11T19:08:40.674Z,42.97
2018-01-11T19:11:08.986Z,43.00
2018-01-11T19:13:37.423Z,39.60
2018-01-11T19:16:05.772Z,41.40
2018-01-11T19:18:34.129Z,41.93
2018-01-11T19:21:02.519Z,42.73
2018-01-11T19:23:30.876Z,42.60
2018-01-11T19:25:59.304Z,43.93
2018-01-11T19:28:27.839Z,48.27
2018-01-11T19:30:56.990Z,45.30
2018-01-11T19:33:25.560Z,44.97
2018-01-11T19:35:53.903Z,46.27
2018-01-11T19:38:22.268Z,45.20
2018-01-11T19:40:51.400Z,48.60
2018-01-11T19:43:19.770Z,44.10
2018-01-11T19:45:48.143Z,48.10
2018-01-11T19:48:16.568Z,48.53
2018-01-11T19:50:44.907Z,52.73
2018-01-11T19:53:13.272Z,47.97
2018-01-11T19:55:41.659Z,51.97
2018-01-11T19:58:10.087Z,50.60
2018-01-11T20:00:38.474Z,65.00
2018-01-11T20:03:06.821Z,63.77
2018-01-11T20:05:36.152Z,54.00
2018-01-11T20:08:04.551Z,51.87
2018-01-11T20:10:33.802Z,49.67
2018-01-11T20:13:02.192Z,53.43
2018-01-11T20:15:30.659Z,54.43
2018-01-11T20:17:59.158Z,51.73
2018-01-11T20:20:27.539Z,53.30
2018-01-11T20:22:55.934Z,53.47
2018-01-11T20:25:24.326Z,51.10
2018-01-11T20:27:52.724Z,54.20
2018-01-11T20:30:21.145Z,54.13
2018-01-11T20:32:49.523Z,55.27
2018-01-11T20:35:17.879Z,51.50
2018-01-11T20:37:46.233Z,54.97
2018-01-11T20:40:15.480Z,54.53
2018-01-11T20:42:43.863Z,51.17
2018-01-11T20:45:12.220Z,50.70
2018-01-11T20:47:40.569Z,57.17
2018-01-11T20:50:09.804Z,54.23
2018-01-11T20:52:38.195Z,52.63
2018-01-11T20:55:06.540Z,53.40
2018-01-11T20:57:34.955Z,53.07
2018-01-11T21:00:03.312Z,47.33
2018-01-11T21:02:31.656Z,49.93
2018-01-11T21:05:00.009Z,46.43
2018-01-11T21:07:28.400Z,42.33
2018-01-11T21:09:56.764Z,41.80
2018-01-11T21:12:25.121Z,40.10
2018-01-11T21:14:54.142Z,36.53
2018-01-11T21:17:22.555Z,34.50
2018-01-11T21:19:50.934Z,34.57
2018-01-11T21:22:19.258Z,31.37
2018-01-11T21:24:47.603Z,35.00
2018-01-11T21:27:16.717Z,33.80
2018-01-11T21:29:45.069Z,35.23
2018-01-11T21:32:14.260Z,35.33
2018-01-11T21:34:43.403Z,32.83
2018-01-11T21:37:12.249Z,32.47
2018-01-11T21:39:41.364Z,34.13
2018-01-11T21:42:09.731Z,32.40
2018-01-11T21:44:38.933Z,34.37
2018-01-11T21:47:07.268Z,32.83
2018-01-11T21:49:35.620Z,34.03
2018-01-11T21:52:03.972Z,34.77
2018-01-11T21:54:32.308Z,31.77
2018-01-11T21:57:00.663Z,32.07
2018-01-11T21:59:29.004Z,30.17
2018-01-11T22:01:58.610Z,31.33
2018-01-11T22:04:27.730Z,33.37
2018-01-11T22:06:56.060Z,36.50
2018-01-11T22:09:24.488Z,32.97
2018-01-11T22:11:52.881Z,33.10
2018-01-11T22:14:21.233Z,31.87
2018-01-11T22:16:49.634Z,35.40
2018-01-11T22:19:17.949Z,36.43
2018-01-11T22:21:46.296Z,36.03
2018-01-11T22:24:14.637Z,34.77
2018-01-11T22:26:43.759Z,43.73
2018-01-11T22:29:12.187Z,33.93
2018-01-11T22:31:40.537Z,35.33
2018-01-11T22:34:08.900Z,35.87
2018-01-11T22:36:37.280Z,28.10
2018-01-11T22:39:05.637Z,31.07
2018-01-11T22:41:34.039Z,30.70
2018-01-11T22:44:02.436Z,29.23
2018-01-11T22:46:30.806Z,29.90
2018-01-11T22:48:59.162Z,31.80
2018-01-11T22:51:27.504Z,29.77
2018-01-11T22:53:55.856Z,27.93
2018-01-11T22:56:24.198Z,27.50
2018-01-11T22:58:52.596Z,35.80
2018-01-11T23:01:20.952Z,29.37
2018-01-11T23:03:49.322Z,30.47
2018-01-11T23:06:17.728Z,29.87
2018-01-11T23:08:46.077Z,32.00
2018-01-11T23:14:10.613Z,29.98
2018-01-11T23:16:38.995Z,27.90
2018-01-11T23:19:07.404Z,30.90
2018-01-11T23:21:35.738Z,27.83
2018-01-11T23:24:04.104Z,26.97
2018-01-11T23:26:33.243Z,27.83
2018-01-11T23:29:01.631Z,29.20
2018-01-11T23:31:29.987Z,29.10
2018-01-11T23:33:58.337Z,29.63
2018-01-11T23:36:27.446Z,28.13
2018-01-11T23:38:55.790Z,28.20
2018-01-11T23:41:24.151Z,25.13
2018-01-11T23:43:52.477Z,26.63
2018-01-11T23:46:20.915Z,26.60
2018-01-11T23:48:49.221Z,27.77
2018-01-11T23:51:18.416Z,28.37
2018-01-11T23:53:46.767Z,26.33
2018-01-11T23:56:15.108Z,28.47
2018-01-11T23:58:43.469Z,29.50
